• Join FlightAware (Why Join?)
  • Login
  • US Flag 
04:43AM EST


 

Airport Tracker/Info


-or-


 

Live Flight TrackerFlight Track Log ✈ ASH3759 ✈ 29-Aug-2013 ✈ KALB - KORD

Flight Track Log - Related Links

Times and Time Zones

All times are in EDT time to prevent confusion due to time zone crossing. See the ASH3759 flight status page for this flight to view local times or setup timezone preferences in your user account.

Time Position Orientation Groundspeed Altitude Reporting Facility
EDT Latitude Longitude Course Direction KTS MPH feet Rate Location/Type
07:02AM 42.7694 -73.8089 281° West 174 200 1,000  Level Boston Center
07:03AM 42.8208 -73.8556 326° Northwest 216 249 3,400 2,016 Climbing Boston Center
07:04AM 42.8639 -73.9186 313° West 249 287 5,300 2,093 Climbing Boston Center
07:06AM 42.8338 -74.3362 283° West  Level FlightAware Approximate
07:06AM 42.9172 -73.9908 315° West 282 325 7,900  Level Boston Center
07:07AM 42.8566 -74.4726 283° West  Level FlightAware Approximate
07:07AM 42.9764 -74.0747 314° West 276 318 11,100  Level Boston Center
07:08AM 42.8886 -74.6033 281° West  Level FlightAware Approximate
07:08AM 43.0294 -74.1500 314° West 286 329 12,300  Level Boston Center
07:09AM 43.0989 -74.2514 313° West 317 365 14,900 2,213 Climbing Boston Center
07:10AM 43.1600 -74.3272 318° Northwest 330 380 16,800 1,934 Climbing Boston Center
07:11AM 43.2292 -74.4378 311° West 330 380 18,800 1,729 Climbing Boston Center
07:12AM 43.2478 -74.5550 282° West 330 380 20,200 1,590 Climbing Boston Center
07:13AM 43.2639 -74.6956 279° West 350 403 21,900 1,563 Climbing Boston Center
07:14AM 43.2631 -74.8408 270° West 375 432 23,300 1,388 Climbing Boston Center
07:15AM 43.2617 -74.9947 269° West 387 445 24,700 1,240 Climbing Boston Center
07:16AM 43.2583 -75.1458 268° West 393 452 25,800 1,140 Climbing Boston Center
07:17AM 43.2539 -75.3253 268° West 414 476 27,000 1,140 Climbing Boston Center
07:18AM 43.2558 -75.4850 271° West 421 484 28,100 1,050 Climbing Boston Center
07:19AM 43.2517 -75.6444 268° West 421 484 29,100 1,127 Climbing Boston Center
07:21AM 43.2472 -75.9567 269° West 430 495 31,500 1,141 Climbing Cleveland Center
07:22AM 43.2333 -76.1167 263° West 420 483 32,600 1,024 Climbing Toronto Center
07:23AM 43.2333 -76.2667 270° West 420 483 33,600 1,100 Climbing Toronto Center
07:24AM 43.2167 -76.4333 262° West 410 472 34,800 1,150 Climbing Toronto Center
07:25AM 43.2167 -76.5667 270° West 400 460 35,900 600 Climbing Toronto Center
07:26AM 43.2333 -76.7333 278° West 400 460 36,000 50 Climbing Toronto Center
07:27AM 43.2167 -76.8833 261° West 410 472 36,000  Level Toronto Center
07:28AM 43.2233 -77.0503 273° West 415 478 36,000 564 Level Cleveland Center
07:29AM 43.2178 -77.2186 267° West 415 478 37,100 900 Climbing Cleveland Center
07:30AM 43.2139 -77.3669 268° West 410 472 37,800 450 Climbing Cleveland Center
07:31AM 43.2111 -77.5039 268° West 404 465 38,000 100 Climbing Cleveland Center
07:32AM 43.2069 -77.6553 268° West 404 465 38,000  Level Cleveland Center
07:33AM 43.2003 -77.8092 267° West 404 465 38,000  Level Cleveland Center
07:34AM 43.1975 -77.9661 269° West 404 465 38,000  Level Cleveland Center
07:35AM 43.1906 -78.1200 267° West 404 465 38,000  Level Cleveland Center
07:36AM 43.1833 -78.2828 267° West 409 471 38,000  Level Cleveland Center
07:37AM 43.1781 -78.4367 267° West 414 476 38,000  Level Cleveland Center
07:38AM 43.1706 -78.5936 266° West 414 476 38,000  Level Cleveland Center
07:39AM 43.1647 -78.7503 267° West 414 476 38,000  Level Cleveland Center
07:40AM 43.1500 -78.9000 262° West 410 472 38,000  Level Toronto Center
07:41AM 43.1500 -79.0667 270° West 410 472 38,000  Level Toronto Center
07:42AM 43.1333 -79.2167 261° West 410 472 38,000  Level Toronto Center
07:43AM 43.1333 -79.3833 270° West 410 472 38,000  Level Toronto Center
07:44AM 43.1167 -79.5500 262° West 420 483 38,000  Level Toronto Center
07:45AM 43.1167 -79.7000 270° West 410 472 38,000  Level Toronto Center
07:46AM 43.1000 -79.8333 260° West 420 483 38,000  Level Toronto Center
07:47AM 43.1000 -80.0167 270° West 420 483 38,000  Level Toronto Center
07:48AM 43.0833 -80.1833 262° West 420 483 38,000  Level Toronto Center
07:49AM 43.0833 -80.3167 270° West 420 483 38,000  Level Toronto Center
07:50AM 43.0667 -80.5000 263° West 420 483 38,000  Level Toronto Center
07:51AM 43.0667 -80.6333 270° West 420 483 38,000  Level Toronto Center
07:52AM 43.0500 -80.8000 262° West 420 483 38,000  Level Toronto Center
07:53AM 43.0333 -80.9500 261° West 420 483 38,000  Level Toronto Center
07:54AM 43.0167 -81.1167 262° West 420 483 38,000  Level Toronto Center
07:55AM 43.0167 -81.3000 270° West 420 483 38,000  Level Toronto Center
07:56AM 43.0167 -81.4333 270° West 420 483 38,000  Level Toronto Center
07:57AM 43.0167 -81.6167 270° West 420 483 38,000  Level Toronto Center
07:58AM 43.0167 -81.7500 270° West 420 483 38,000  Level Toronto Center
07:59AM 43.0000 -81.9333 263° West 420 483 38,000  Level Toronto Center
08:00AM 43.0000 -82.0667 270° West 420 483 38,000  Level Toronto Center
08:01AM 43.0000 -82.2333 270° West 420 483 38,000  Level Toronto Center
08:02AM 43.0000 -82.4167 270° West 420 483 38,000  Level Toronto Center
08:03AM 43.0000 -82.5500 270° West 430 495 38,000  Level Toronto Center
08:04AM 42.9833 -82.7333 263° West 430 495 38,000  Level Toronto Center
08:05AM 42.9833 -82.9000 270° West 430 495 38,000  Level Toronto Center
08:06AM 42.9833 -83.0500 270° West 430 495 38,000  Level Toronto Center
08:07AM 42.9667 -83.2167 262° West 430 495 38,000  Level Toronto Center
08:08AM 42.9667 -83.4000 270° West 430 495 38,000  Level Toronto Center
08:09AM 42.9667 -83.5500 270° West 430 495 38,000  Level Toronto Center
08:10AM 42.9500 -83.7167 262° West 430 495 38,000  Level Toronto Center
08:11AM 42.9333 -83.8667 261° West 440 506 38,000  Level Toronto Center
08:12AM 42.9333 -84.0333 270° West 440 506 38,000 -500 Level Toronto Center
08:13AM 42.9000 -84.2167 256° West 440 506 37,000 -1,150 Descending Toronto Center
08:14AM 42.8833 -84.3667 261° West 430 495 35,700 -1,319 Descending Toronto Center
08:14AM 42.8969 -84.4528 282° West 434 499 35,000 -1,290 Descending Chicago Center
08:15AM 42.8806 -84.6089 262° West 420 483 33,700 -1,258 Descending Chicago Center
08:16AM 42.8656 -84.7647 263° West 416 479 32,400 -823 Descending Chicago Center
08:17AM 42.8483 -84.9219 262° West 419 482 32,000 -194 Descending Chicago Center
08:18AM 42.8328 -85.0794 262° West 421 484 32,000  Level Chicago Center
08:19AM 42.8156 -85.2383 262° West 425 489 32,000  Level Chicago Center
08:20AM 42.7978 -85.3992 261° West 428 493 32,000 -1,016 Level Chicago Center
08:21AM 42.7694 -85.5919 259° West 434 499 29,900 -2,177 Descending Chicago Center
08:22AM 42.7406 -85.7486 256° West 428 493 27,500 -2,274 Descending Chicago Center
08:23AM 42.7139 -85.8983 256° West 408 470 25,200 -2,226 Descending Chicago Center
08:25AM 42.6872 -86.0436 256° West 396 456 22,900 -2,226 Descending Chicago Center
08:26AM 42.6614 -86.1889 256° West 395 455 20,600 -1,839 Descending Chicago Center
08:27AM 42.6353 -86.3250 255° West 374 430 19,100 -1,548 Descending Chicago Center
08:28AM 42.6108 -86.4519 255° West 350 403 17,400 -1,694 Descending Chicago Center
08:29AM 42.5833 -86.6019 256° West 342 394 15,600 -1,548 Descending Chicago Center
08:30AM 42.5614 -86.7222 256° West 331 381 14,200 -1,452 Descending Chicago Center
08:31AM 42.5297 -86.8425 250° West 338 389 12,600 -1,500 Descending Chicago Center
08:32AM 42.4986 -86.9592 250° West 332 382 11,100 -1,258 Descending Chicago Center
08:33AM 42.4647 -87.0719 248° West 322 371 10,000 -774 Descending Chicago Center
08:34AM 42.4358 -87.1781 250° West 303 349 9,500 -484 Descending Chicago Center
08:35AM 42.4083 -87.2806 250° West 290 334 9,000 -823 Descending Chicago Center
08:36AM 42.3586 -87.4006 241° Southwest 301 346 7,800 -960 Descending Chicago Center
08:37AM 42.3169 -87.4869 237° Southwest 301 346 7,000 -528 Descending Chicago Center
08:38AM 42.2717 -87.5756 235° Southwest 290 334 6,700 -968 Descending Chicago Center
08:39AM 42.2064 -87.6656 226° Southwest 281 323 5,000 -919 Descending Chicago Center
08:40AM 42.1547 -87.7236 220° Southwest 244 281 4,800 -835 Descending Chicago Center
08:41AM 42.1000 -87.7667 210° Southwest 232 267 3,400 -1,311 Descending Chicago TRACON
08:42AM 42.0667 -87.8333 236° Southwest 190 219 2,200 -952 Descending Chicago TRACON
08:43AM 42.0333 -87.8667 217° Southwest 143 165 1,400 -800 Descending Chicago TRACON